Time;durP1;ratioP1;P1;durP2;ratioP2;P2;SDS_P1;SDS_P2;PMS_P1;PMS_P2;Temp;Humidity;BMP_temperature;BMP_pressure;BME280_temperature;BME280_humidity;BME280_pressure;Samples;Min_cycle;Max_cycle;Signal;HPM_P1;HPM_P2
2021/09/27 00:00:42;;;;;;;22.83;20.42;;;;;;;16.34;87.01;101445.53;693490;28;1626;-62
2021/09/27 00:01:06;;;;;;;23.63;21.23;;;;;;;16.26;87.02;101438.00;692593;28;1430;-64
2021/09/27 00:01:28;;;;;;;23.38;20.88;;;;;;;16.28;87.32;101443.25;693609;28;934;-64
2021/09/27 00:01:51;;;;;;;23.38;20.98;;;;;;;16.29;87.28;101447.59;693310;28;889;-63
2021/09/27 00:02:18;;;;;;;23.45;21.05;;;;;;;16.25;87.21;101438.94;693392;28;975;-63
2021/09/27 00:02:40;;;;;;;23.70;21.30;;;;;;;16.21;87.43;101439.19;693351;28;1034;-64
2021/09/27 00:03:00;;;;;;;23.45;21.05;;;;;;;16.20;87.40;101432.16;693145;28;836;-64
2021/09/27 00:03:20;;;;;;;24.20;21.70;;;;;;;16.23;87.60;101437.31;693447;28;1196;-63
2021/09/27 00:03:41;;;;;;;24.17;21.67;;;;;;;16.23;87.67;101439.97;693437;28;935;-64
2021/09/27 00:04:01;;;;;;;24.10;21.70;;;;;;;16.22;87.39;101441.78;693677;28;797;-64
2021/09/27 00:04:21;;;;;;;24.37;21.87;;;;;;;16.18;87.64;101444.69;693542;28;899;-63
2021/09/27 00:04:42;;;;;;;24.53;21.97;;;;;;;16.16;87.76;101441.25;693512;28;991;-63
2021/09/27 00:05:05;;;;;;;24.50;22.00;;;;;;;16.15;87.72;101443.06;693711;28;939;-63
2021/09/27 00:05:27;;;;;;;24.33;21.83;;;;;;;16.16;87.79;101444.75;693349;28;904;-64
2021/09/27 00:05:48;;;;;;;24.48;21.88;;;;;;;16.13;87.82;101445.78;693279;28;1036;-64
2021/09/27 00:06:10;;;;;;;24.35;21.73;;;;;;;16.06;88.29;101440.91;693491;28;899;-64
2021/09/27 00:06:33;;;;;;;24.73;22.25;;;;;;;16.09;88.02;101438.94;693273;28;860;-64
2021/09/27 00:06:53;;;;;;;24.88;22.33;;;;;;;16.10;87.93;101440.66;693503;28;853;-64
2021/09/27 00:07:14;;;;;;;25.10;22.50;;;;;;;16.13;88.12;101436.94;693475;28;971;-64
2021/09/27 00:07:34;;;;;;;24.30;21.70;;;;;;;16.13;88.18;101442.28;693507;28;927;-63
2021/09/27 00:07:54;;;;;;;24.38;21.83;;;;;;;16.10;87.94;101439.78;693596;28;1058;-64
2021/09/27 00:08:16;;;;;;;25.00;22.33;;;;;;;16.10;87.94;101438.00;693613;28;891;-64
2021/09/27 00:08:36;;;;;;;24.05;21.45;;;;;;;16.12;88.27;101441.41;693422;28;826;-63
2021/09/27 00:08:57;;;;;;;24.30;21.70;;;;;;;16.13;88.11;101440.47;693585;28;1005;-63
2021/09/27 00:09:17;;;;;;;24.30;21.80;;;;;;;16.14;87.85;101444.88;693606;28;844;-63
2021/09/27 00:09:37;;;;;;;23.77;21.37;;;;;;;16.16;87.92;101441.25;693471;28;1984;-63
2021/09/27 00:10:00;;;;;;;24.10;21.50;;;;;;;16.17;87.73;101438.50;693518;28;1234;-63
2021/09/27 00:10:31;;;;;;;24.73;22.05;;;;;;;16.16;87.92;101446.56;693589;28;891;-64
2021/09/27 00:11:04;;;;;;;24.45;21.95;;;;;;;16.20;87.56;101442.78;693478;28;1784;-64
2021/09/27 00:11:26;;;;;;;24.48;21.98;;;;;;;16.18;87.85;101444.69;693662;28;892;-63
2021/09/27 00:11:52;;;;;;;24.27;21.67;;;;;;;16.18;87.87;101442.03;693531;28;896;-64
2021/09/27 00:12:12;;;;;;;23.83;21.33;;;;;;;16.17;87.75;101446.47;693494;28;963;-63
2021/09/27 00:12:32;;;;;;;23.57;21.17;;;;;;;16.17;87.77;101442.97;693557;28;812;-64
2021/09/27 00:12:53;;;;;;;23.65;21.15;;;;;;;16.16;87.70;101444.75;693194;28;951;-63
2021/09/27 00:13:16;;;;;;;23.67;21.20;;;;;;;16.13;87.88;101443.13;693610;28;902;-64
2021/09/27 00:13:40;;;;;;;24.02;21.33;;;;;;;16.12;87.77;101440.56;693687;28;886;-63
2021/09/27 00:14:03;;;;;;;24.02;21.52;;;;;;;16.14;88.05;101450.19;693407;28;1030;-63
2021/09/27 00:14:29;;;;;;;24.90;22.35;;;;;;;16.11;87.98;101445.03;693687;28;907;-63
2021/09/27 00:14:50;;;;;;;24.77;22.17;;;;;;;16.14;87.96;101449.31;693608;28;865;-64
2021/09/27 00:15:14;;;;;;;24.48;21.83;;;;;;;16.14;87.95;101441.34;693571;28;876;-63
2021/09/27 00:15:42;;;;;;;23.90;21.30;;;;;;;16.13;87.81;101442.28;693673;28;907;-64
2021/09/27 00:16:04;;;;;;;24.05;21.50;;;;;;;16.12;88.04;101445.88;693461;28;884;-63
2021/09/27 00:16:25;;;;;;;24.40;21.90;;;;;;;16.14;88.04;101444.00;693624;28;1022;-64
2021/09/27 00:16:45;;;;;;;24.42;21.83;;;;;;;16.16;87.91;101441.25;693474;28;985;-64
2021/09/27 00:17:07;;;;;;;23.97;21.43;;;;;;;16.15;87.98;101445.72;693616;28;961;-63
2021/09/27 00:17:28;;;;;;;23.73;21.33;;;;;;;16.11;87.95;101442.38;693546;28;1126;-64
2021/09/27 00:17:48;;;;;;;24.42;21.83;;;;;;;16.10;88.09;101443.31;693424;28;1019;-64
2021/09/27 00:18:09;;;;;;;24.47;21.90;;;;;;;16.11;88.06;101445.03;693602;28;841;-64
2021/09/27 00:18:35;;;;;;;24.20;21.63;;;;;;;16.12;87.95;101441.41;693641;28;927;-65
2021/09/27 00:18:55;;;;;;;24.80;22.10;;;;;;;16.14;87.92;101438.69;693394;28;1037;-64
2021/09/27 00:19:16;;;;;;;24.25;21.50;;;;;;;16.16;88.04;101435.94;693660;28;853;-62
2021/09/27 00:19:37;;;;;;;24.03;21.50;;;;;;;16.14;87.81;101434.22;693551;28;853;-64
2021/09/27 00:20:01;;;;;;;23.60;21.02;;;;;;;16.16;87.86;101434.13;693429;28;1196;-64
2021/09/27 00:20:24;;;;;;;23.63;21.13;;;;;;;16.16;87.84;101430.63;693512;28;851;-62
2021/09/27 00:20:49;;;;;;;24.13;21.63;;;;;;;16.13;87.74;101432.50;693596;28;927;-63
2021/09/27 00:21:16;;;;;;;24.15;21.52;;;;;;;16.11;87.83;101433.53;693523;28;1254;-63
2021/09/27 00:21:36;;;;;;;24.48;21.90;;;;;;;16.12;87.84;101430.78;693396;28;1307;-64
2021/09/27 00:21:56;;;;;;;24.63;22.05;;;;;;;16.13;88.01;101432.50;693454;28;987;-65
2021/09/27 00:22:17;;;;;;;24.47;21.80;;;;;;;16.13;87.97;101423.66;693618;28;995;-64
2021/09/27 00:22:37;;;;;;;24.23;21.67;;;;;;;16.10;87.83;101422.06;693522;28;864;-63
2021/09/27 00:22:57;;;;;;;24.13;21.60;;;;;;;16.11;87.80;101423.75;693218;28;994;-62
2021/09/27 00:23:19;;;;;;;24.10;21.57;;;;;;;16.12;88.05;101416.63;693519;28;808;-63
2021/09/27 00:23:40;;;;;;;24.05;21.45;;;;;;;16.12;87.98;101420.16;693665;28;950;-64
2021/09/27 00:24:02;;;;;;;24.15;21.65;;;;;;;16.12;87.72;101417.47;693599;28;947;-63
2021/09/27 00:24:22;;;;;;;23.63;21.23;;;;;;;16.13;87.87;101411.22;693575;28;892;-63
2021/09/27 00:24:42;;;;;;;24.90;22.30;;;;;;;16.07;88.13;101416.00;693702;28;805;-63
2021/09/27 00:25:05;;;;;;;26.23;23.53;;;;;;;16.12;88.06;101419.28;693555;28;927;-62
2021/09/27 00:25:26;;;;;;;25.13;22.52;;;;;;;16.14;87.67;101410.28;693452;28;864;-64
2021/09/27 00:25:47;;;;;;;24.70;22.17;;;;;;;16.13;87.96;101411.22;693568;28;1010;-64
2021/09/27 00:26:07;;;;;;;24.00;21.50;;;;;;;16.09;87.99;101415.00;693563;28;920;-63
2021/09/27 00:26:30;;;;;;;24.43;21.83;;;;;;;16.08;87.71;101410.63;693541;28;828;-63
2021/09/27 00:26:50;;;;;;;25.15;22.20;;;;;;;16.08;87.79;101415.94;693660;28;1018;-64
2021/09/27 00:27:10;;;;;;;24.73;21.97;;;;;;;16.08;87.78;101407.97;693546;28;785;-64
2021/09/27 00:27:34;;;;;;;25.52;22.75;;;;;;;16.08;87.93;101415.94;693672;28;825;-63
2021/09/27 00:27:54;;;;;;;25.08;22.38;;;;;;;16.08;88.03;101415.94;693677;28;1010;-63
2021/09/27 00:28:16;;;;;;;25.50;22.80;;;;;;;16.08;87.74;101412.44;693325;28;1100;-63
2021/09/27 00:28:36;;;;;;;24.75;22.10;;;;;;;16.07;87.97;101414.25;693637;28;1800;-63
2021/09/27 00:28:57;;;;;;;25.75;23.05;;;;;;;16.05;88.07;101408.13;693606;28;990;-63
2021/09/27 00:29:35;;;;;;;24.87;22.33;;;;;;;16.01;88.13;101411.91;693529;28;1313;-63
2021/09/27 00:29:57;;;;;;;24.58;21.98;;;;;;;15.99;88.16;101408.47;693455;28;1105;-64
2021/09/27 00:30:19;;;;;;;25.50;22.80;;;;;;;15.95;88.27;101412.25;693447;28;950;-63
2021/09/27 00:30:40;;;;;;;25.85;23.15;;;;;;;15.96;88.35;101411.28;693674;28;1035;-63
2021/09/27 00:31:00;;;;;;;25.73;23.02;;;;;;;15.98;88.36;101406.75;693481;28;1324;-63
2021/09/27 00:31:21;;;;;;;25.63;22.90;;;;;;;15.99;88.40;101407.63;693467;28;1042;-63
2021/09/27 00:31:41;;;;;;;25.42;22.73;;;;;;;16.00;88.46;101409.31;693582;28;885;-63
2021/09/27 00:32:02;;;;;;;25.43;22.70;;;;;;;15.98;88.37;101412.09;693471;28;955;-63
2021/09/27 00:32:22;;;;;;;25.25;22.63;;;;;;;15.99;88.37;101413.78;693555;28;1059;-63
2021/09/27 00:32:43;;;;;;;25.60;22.90;;;;;;;15.97;88.19;101412.19;693269;28;967;-63
2021/09/27 00:33:05;;;;;;;25.50;22.80;;;;;;;15.96;88.24;101413.09;693514;28;1018;-62
2021/09/27 00:33:26;;;;;;;25.85;23.05;;;;;;;15.96;88.21;101419.28;693554;28;1718;-62
2021/09/27 00:33:47;;;;;;;25.67;23.05;;;;;;;15.96;88.65;101413.94;693500;28;872;-63
2021/09/27 00:34:08;;;;;;;26.25;23.45;;;;;;;15.95;88.65;101406.09;693570;28;1018;-62
2021/09/27 00:34:28;;;;;;;25.80;23.10;;;;;;;15.97;88.26;101410.38;693619;28;797;-63
2021/09/27 00:34:48;;;;;;;25.77;22.83;;;;;;;15.90;88.43;101414.31;693357;28;1271;-63
2021/09/27 00:35:11;;;;;;;27.17;23.95;;;;;;;15.83;88.68;101407.63;693663;28;851;-63
2021/09/27 00:35:35;;;;;;;27.33;23.67;;;;;;;15.83;88.84;101411.13;693396;28;884;-63
2021/09/27 00:35:56;;;;;;;26.17;23.35;;;;;;;15.84;89.15;101409.34;693462;28;1113;-65
2021/09/27 00:36:17;;;;;;;25.67;22.87;;;;;;;15.89;89.03;101412.56;693590;28;896;-64
2021/09/27 00:36:37;;;;;;;25.70;23.00;;;;;;;15.90;89.01;101414.31;693421;28;1011;-64
2021/09/27 00:36:58;;;;;;;25.93;22.87;;;;;;;15.89;88.80;101407.25;693727;28;911;-63
2021/09/27 00:37:18;;;;;;;25.02;22.33;;;;;;;15.89;88.88;101413.44;693704;28;947;-63
2021/09/27 00:37:39;;;;;;;24.97;22.37;;;;;;;15.91;88.79;101408.06;693432;28;995;-64
2021/09/27 00:38:00;;;;;;;25.42;22.73;;;;;;;15.92;88.86;101409.75;693630;28;809;-63
2021/09/27 00:38:21;;;;;;;26.02;23.25;;;;;;;15.92;88.62;101409.75;693549;28;1329;-63
2021/09/27 00:38:45;;;;;;;25.45;22.67;;;;;;;15.94;88.73;101410.53;693579;28;967;-63
2021/09/27 00:39:08;;;;;;;25.10;22.50;;;;;;;15.91;88.52;101408.06;693669;28;828;-62
2021/09/27 00:39:29;;;;;;;25.95;23.20;;;;;;;15.90;88.66;101404.53;693452;28;924;-63
2021/09/27 00:39:49;;;;;;;25.88;23.08;;;;;;;15.92;88.63;101412.41;693535;28;817;-62
2021/09/27 00:40:13;;;;;;;26.07;23.33;;;;;;;15.90;88.71;101415.16;693587;28;939;-63
2021/09/27 00:40:38;;;;;;;25.70;22.90;;;;;;;15.89;88.52;101405.47;693464;28;990;-64
2021/09/27 00:41:03;;;;;;;26.35;23.50;;;;;;;15.92;88.56;101407.09;693569;28;1356;-62
2021/09/27 00:41:23;;;;;;;25.65;22.80;;;;;;;15.94;88.68;101407.88;693353;28;920;-62
2021/09/27 00:41:45;;;;;;;25.57;22.80;;;;;;;15.97;88.73;101410.38;693281;28;939;-64
2021/09/27 00:42:08;;;;;;;27.02;22.77;;;;;;;15.97;88.62;101404.22;693183;28;987;-63
2021/09/27 00:42:28;;;;;;;25.85;21.98;;;;;;;15.93;88.66;101413.28;693409;28;864;-63
2021/09/27 00:42:48;;;;;;;24.42;21.83;;;;;;;15.94;88.61;101407.88;692951;28;864;-64
2021/09/27 00:43:10;;;;;;;25.97;23.27;;;;;;;15.92;88.37;101407.09;693447;28;991;-63
2021/09/27 00:43:35;;;;;;;26.15;23.35;;;;;;;15.94;88.52;101407.88;693588;28;938;-64
2021/09/27 00:43:55;;;;;;;26.45;23.38;;;;;;;15.93;88.63;101398.16;693317;28;954;-63
2021/09/27 00:44:16;;;;;;;25.93;22.60;;;;;;;15.91;88.78;101405.38;693505;28;821;-63
2021/09/27 00:44:37;;;;;;;25.10;22.40;;;;;;;15.92;88.72;101412.41;693643;28;840;-64
2021/09/27 00:44:58;;;;;;;25.83;23.08;;;;;;;15.89;88.86;101409.91;693526;28;964;-63
2021/09/27 00:45:25;;;;;;;26.02;23.23;;;;;;;15.93;88.83;101402.63;693542;28;977;-63
2021/09/27 00:45:49;;;;;;;25.58;22.88;;;;;;;15.92;88.70;101401.78;693583;28;903;-64
2021/09/27 00:46:14;;;;;;;25.42;22.75;;;;;;;15.92;88.75;101400.94;693437;28;1884;-63
2021/09/27 00:46:34;;;;;;;25.08;22.38;;;;;;;15.91;88.84;101402.72;693401;28;1055;-63
2021/09/27 00:46:54;;;;;;;24.47;21.80;;;;;;;15.92;88.75;101407.09;693240;28;872;-63
2021/09/27 00:47:15;;;;;;;24.80;21.90;;;;;;;15.91;88.88;101405.38;693447;28;872;-64
2021/09/27 00:47:36;;;;;;;25.43;21.70;;;;;;;15.91;88.69;101400.06;693566;28;863;-64
2021/09/27 00:47:56;;;;;;;25.88;22.08;;;;;;;15.91;88.71;101410.72;693247;28;1070;-64
2021/09/27 00:48:17;;;;;;;25.75;22.70;;;;;;;15.89;88.85;101408.13;693548;28;1029;-64
2021/09/27 00:48:38;;;;;;;26.57;23.10;;;;;;;15.88;88.73;101416.19;693791;28;856;-65
2021/09/27 00:49:00;;;;;;;24.73;21.95;;;;;;;15.86;88.80;101412.75;693632;28;947;-64
2021/09/27 00:49:20;;;;;;;24.85;22.15;;;;;;;15.86;88.84;101413.63;693713;28;868;-64
2021/09/27 00:49:40;;;;;;;25.00;22.30;;;;;;;15.88;88.93;101416.19;693545;28;1961;-65
2021/09/27 00:50:01;;;;;;;25.20;22.50;;;;;;;15.88;88.88;101410.88;693505;28;998;-64
2021/09/27 00:50:26;;;;;;;24.90;22.30;;;;;;;15.85;88.68;101411.03;693564;28;848;-64
2021/09/27 00:50:54;;;;;;;25.50;22.50;;;;;;;15.85;89.18;101413.69;693504;28;967;-64
2021/09/27 00:51:18;;;;;;;27.02;22.77;;;;;;;15.85;88.81;101408.38;693426;28;1330;-63
2021/09/27 00:51:42;;;;;;;25.00;22.30;;;;;;;15.83;88.92;101408.47;693473;28;1095;-65
2021/09/27 00:52:06;;;;;;;25.33;22.63;;;;;;;15.85;89.11;101403.06;693403;28;913;-64
2021/09/27 00:52:26;;;;;;;25.42;22.45;;;;;;;15.90;88.80;101406.34;693497;28;1018;-64
2021/09/27 00:52:47;;;;;;;25.58;22.75;;;;;;;15.86;89.00;101399.44;693174;28;852;-65
2021/09/27 00:53:19;;;;;;;26.73;23.15;;;;;;;15.80;89.06;101407.78;693579;28;872;-64
2021/09/27 00:53:51;;;;;;;26.15;23.35;;;;;;;15.74;89.42;101400.16;693624;28;964;-65
2021/09/27 00:54:21;;;;;;;27.65;22.75;;;;;;;15.73;89.75;101401.09;693313;28;844;-64
2021/09/27 00:54:42;;;;;;;26.33;23.48;;;;;;;15.75;89.61;101405.38;693512;28;1005;-62
2021/09/27 00:55:06;;;;;;;26.25;23.45;;;;;;;15.76;89.46;101403.56;693596;28;940;-64
2021/09/27 00:55:26;;;;;;;26.35;23.40;;;;;;;15.74;89.86;101397.50;693392;28;1019;-62
2021/09/27 00:55:47;;;;;;;26.40;23.60;;;;;;;15.75;89.57;101405.38;693482;28;1050;-63
2021/09/27 00:56:16;;;;;;;26.05;23.17;;;;;;;15.74;89.81;101408.13;693533;28;994;-63
2021/09/27 00:56:46;;;;;;;26.42;22.90;;;;;;;15.73;89.78;101407.25;693516;28;1661;-64
2021/09/27 00:57:12;;;;;;;27.10;23.52;;;;;;;15.73;89.84;101398.44;693472;28;860;-63
2021/09/27 00:57:32;;;;;;;26.52;23.30;;;;;;;15.74;89.80;101402.81;693611;28;872;-63
2021/09/27 00:57:54;;;;;;;25.90;22.98;;;;;;;15.75;89.99;101399.19;693586;28;999;-64
2021/09/27 00:58:17;;;;;;;26.42;23.52;;;;;;;15.80;89.62;101398.00;693368;28;955;-63
2021/09/27 00:58:40;;;;;;;26.88;23.60;;;;;;;15.79;89.73;101393.63;693564;28;940;-63
2021/09/27 00:59:02;;;;;;;26.17;23.17;;;;;;;15.79;89.71;101400.72;693441;28;1015;-63
2021/09/27 00:59:24;;;;;;;26.50;22.80;;;;;;;15.80;89.57;101399.81;693492;28;1022;-64
2021/09/27 00:59:49;;;;;;;25.75;22.90;;;;;;;15.80;89.83;101397.16;693554;28;900;-64
2021/09/27 01:00:13;;;;;;;26.52;23.40;;;;;;;15.80;89.69;101397.16;693316;28;955;-63
2021/09/27 01:00:34;;;;;;;26.50;22.60;;;;;;;15.77;89.67;101392.00;693404;28;1059;-62
2021/09/27 01:00:54;;;;;;;25.35;22.63;;;;;;;15.76;89.80;101391.16;693399;28;1231;-62
2021/09/27 01:01:16;;;;;;;26.20;23.40;;;;;;;15.77;89.79;101392.00;693255;28;1489;-63
2021/09/27 01:01:36;;;;;;;26.58;23.63;;;;;;;15.76;89.64;101398.25;693223;28;1261;-62
2021/09/27 01:01:57;;;;;;;25.90;22.97;;;;;;;15.78;89.77;101396.38;693322;28;904;-63
2021/09/27 01:02:17;;;;;;;25.90;22.75;;;;;;;15.79;89.74;101398.06;693286;28;943;-63
2021/09/27 01:02:38;;;;;;;26.80;22.65;;;;;;;15.84;89.49;101393.38;693195;28;1007;-63
2021/09/27 01:02:58;;;;;;;26.07;22.90;;;;;;;15.83;89.70;101392.53;692936;28;832;-63
2021/09/27 01:03:21;;;;;;;28.48;23.70;;;;;;;15.81;89.45;101391.75;693621;28;813;-64
2021/09/27 01:03:42;;;;;;;27.02;23.42;;;;;;;15.81;89.61;101394.41;693450;28;959;-63
2021/09/27 01:04:04;;;;;;;25.08;22.38;;;;;;;15.81;89.45;101391.75;693568;28;877;-63
2021/09/27 01:04:24;;;;;;;25.48;22.70;;;;;;;15.81;89.31;101394.41;693463;28;1023;-64
2021/09/27 01:04:45;;;;;;;25.10;22.40;;;;;;;15.79;89.41;101398.06;693442;28;816;-64
2021/09/27 01:05:08;;;;;;;25.65;22.88;;;;;;;15.78;89.65;101394.56;693547;28;933;-63
2021/09/27 01:05:29;;;;;;;26.35;23.55;;;;;;;15.76;89.55;101392.94;693455;28;911;-63
2021/09/27 01:06:16;;;;;;;26.50;23.60;;;;;;;15.78;89.79;101399.03;693477;28;912;-63
2021/09/27 01:07:51;;;;;;;26.67;23.25;;;;;;;15.79;89.67;101390.09;693282;28;1045;-63
2021/09/27 01:08:26;;;;;;;26.58;23.63;;;;;;;15.79;89.64;101392.75;684941;28;1565;-64
2021/09/27 01:09:12;;;;;;;25.67;22.70;;;;;;;15.80;89.62;101387.38;688166;28;1104;-63
2021/09/27 01:10:09;;;;;;;26.15;23.02;;;;;;;15.79;89.58;101387.44;690331;28;1904;-63
2021/09/27 01:11:05;;;;;;;27.13;22.88;;;;;;;15.75;89.62;101393.88;693383;28;928;-64
2021/09/27 01:11:52;;;;;;;25.70;22.88;;;;;;;15.79;89.50;101390.09;693679;28;1122;-64
2021/09/27 01:12:42;;;;;;;26.13;23.20;;;;;;;15.76;89.70;101385.84;693951;28;959;-63
2021/09/27 01:13:26;;;;;;;26.05;23.15;;;;;;;15.75;89.56;101393.88;693871;28;968;-63
2021/09/27 01:14:24;;;;;;;26.02;22.75;;;;;;;15.75;89.64;101393.88;694051;28;931;-63
2021/09/27 01:15:01;;;;;;;25.23;22.52;;;;;;;15.69;89.96;101391.53;694074;28;936;-64
2021/09/27 01:16:18;;;;;;;28.20;23.40;;;;;;;15.65;89.97;101383.72;693991;28;904;-63
2021/09/27 01:17:23;;;;;;;25.35;22.70;;;;;;;15.69;90.04;101380.91;694105;28;836;-63
2021/09/27 01:18:12;;;;;;;25.67;22.58;;;;;;;15.70;90.08;101380.00;694087;28;956;-64
2021/09/27 01:18:33;;;;;;;26.48;22.92;;;;;;;15.69;89.84;101384.47;694026;28;931;-63
2021/09/27 01:19:05;;;;;;;25.40;22.60;;;;;;;15.70;89.99;101380.00;694081;28;852;-63
2021/09/27 01:20:05;;;;;;;25.02;22.15;;;;;;;15.69;89.84;101388.88;694073;28;924;-64
2021/09/27 01:21:11;;;;;;;25.67;22.90;;;;;;;15.74;89.91;101384.19;693923;28;931;-63
2021/09/27 01:21:49;;;;;;;25.95;23.13;;;;;;;15.74;89.67;101379.75;690825;28;1167;-64
2021/09/27 01:22:30;;;;;;;25.23;22.50;;;;;;;15.72;89.48;101376.28;691227;28;1049;-64
2021/09/27 01:23:04;;;;;;;26.15;22.58;;;;;;;15.70;89.85;101377.34;693567;28;899;-64
2021/09/27 01:24:09;;;;;;;25.67;22.58;;;;;;;15.72;89.76;101384.25;694028;28;935;-63
2021/09/27 01:24:51;;;;;;;25.48;22.77;;;;;;;15.72;89.68;101378.09;693759;28;1078;-64
2021/09/27 01:25:34;;;;;;;26.38;22.83;;;;;;;15.64;89.62;101386.47;694048;28;837;-63
2021/09/27 01:26:19;;;;;;;26.10;22.65;;;;;;;15.63;89.94;101380.28;694140;28;957;-63
2021/09/27 01:27:01;;;;;;;27.80;23.35;;;;;;;15.58;90.18;101378.81;693939;28;1446;-63
2021/09/27 01:27:43;;;;;;;27.42;23.38;;;;;;;15.64;90.06;101378.50;693893;28;1074;-63
2021/09/27 01:28:17;;;;;;;26.00;23.27;;;;;;;15.65;90.18;101375.72;694105;28;867;-63
2021/09/27 01:28:57;;;;;;;27.38;23.88;;;;;;;15.65;89.95;101373.06;694025;28;864;-64
2021/09/27 01:29:42;;;;;;;26.05;22.42;;;;;;;15.60;89.99;101380.47;693887;28;877;-63
2021/09/27 01:30:27;;;;;;;26.48;22.98;;;;;;;15.64;90.06;101375.84;693970;28;954;-62
2021/09/27 01:30:58;;;;;;;25.55;22.67;;;;;;;15.65;89.84;101373.06;694028;28;954;-63
2021/09/27 01:31:33;;;;;;;26.80;23.35;;;;;;;15.62;90.03;101375.03;693947;28;984;-64
2021/09/27 01:32:19;;;;;;;25.73;22.80;;;;;;;15.61;90.05;101374.19;693893;28;946;-64
2021/09/27 01:32:47;;;;;;;25.83;23.05;;;;;;;15.60;90.02;101372.50;693669;28;899;-64
2021/09/27 01:33:37;;;;;;;26.90;23.25;;;;;;;15.58;90.07;101370.84;693966;28;1046;-63
2021/09/27 01:34:04;;;;;;;25.20;22.50;;;;;;;15.54;90.19;101364.84;690690;28;1158;-63
2021/09/27 01:34:36;;;;;;;25.44;22.74;;;;;;;15.53;90.14;101371.09;690902;28;904;-64
2021/09/27 01:35:14;;;;;;;26.25;22.70;;;;;;;15.52;89.99;101372.06;693166;28;1031;-64
2021/09/27 01:36:00;;;;;;;25.58;22.77;;;;;;;15.55;90.26;101369.19;693978;28;1070;-63
2021/09/27 01:36:35;;;;;;;26.95;24.05;;;;;;;15.58;90.42;101365.53;694022;28;865;-63
2021/09/27 01:37:06;;;;;;;27.67;23.55;;;;;;;15.57;90.34;101364.69;693932;28;1055;-63
2021/09/27 01:37:30;;;;;;;27.30;23.20;;;;;;;15.54;90.37;101362.19;694057;28;988;-64
2021/09/27 01:38:24;;;;;;;27.00;23.92;;;;;;;15.52;90.20;101372.06;693885;28;957;-62
2021/09/27 01:39:00;;;;;;;26.02;23.23;;;;;;;15.51;90.29;101370.31;693809;28;853;-64
2021/09/27 01:39:37;;;;;;;27.67;23.20;;;;;;;15.53;90.21;101363.13;694033;28;884;-63
2021/09/27 01:40:16;;;;;;;27.75;23.80;;;;;;;15.54;90.50;101364.84;693935;28;930;-63
2021/09/27 01:40:47;;;;;;;26.30;23.50;;;;;;;15.53;90.20;101362.28;693851;28;899;-63
2021/09/27 01:41:08;;;;;;;28.48;23.45;;;;;;;15.54;90.15;101359.53;694022;28;884;-64
2021/09/27 01:41:49;;;;;;;27.05;22.73;;;;;;;15.56;90.51;101360.31;693955;28;904;-64
2021/09/27 01:42:25;;;;;;;25.48;22.60;;;;;;;15.58;90.26;101354.91;693940;28;960;-63
2021/09/27 01:43:07;;;;;;;25.77;22.95;;;;;;;15.53;90.48;101363.13;693499;28;876;-65
2021/09/27 01:43:30;;;;;;;27.10;23.75;;;;;;;15.51;90.43;101354.38;693703;28;861;-64
2021/09/27 01:44:04;;;;;;;25.77;22.98;;;;;;;15.53;90.25;101352.50;693811;28;884;-64
2021/09/27 01:44:34;;;;;;;27.27;23.45;;;;;;;15.54;90.22;101359.53;693563;28;1044;-64
2021/09/27 01:45:17;;;;;;;26.15;23.10;;;;;;;15.52;90.30;101361.44;693751;28;894;-65
2021/09/27 01:45:59;;;;;;;26.25;23.35;;;;;;;15.54;90.36;101359.53;693994;28;1331;-63
2021/09/27 01:46:33;;;;;;;28.75;23.45;;;;;;;15.56;90.33;101364.78;693808;28;896;-63
2021/09/27 01:47:00;;;;;;;26.27;23.27;;;;;;;15.57;90.25;101363.81;694023;28;823;-63
2021/09/27 01:47:31;;;;;;;25.63;22.75;;;;;;;15.53;90.20;101368.44;693972;28;902;-63
2021/09/27 01:48:47;;;;;;;27.63;23.75;;;;;;;15.51;90.65;101372.97;694012;28;840;-63
2021/09/27 01:49:14;;;;;;;28.77;23.85;;;;;;;15.49;90.23;101371.38;685350;28;1220;-62
2021/09/27 01:49:57;;;;;;;27.05;23.05;;;;;;;15.53;90.31;101372.91;690781;28;1966;-63
2021/09/27 01:50:24;;;;;;;28.40;23.67;;;;;;;15.49;90.34;101366.06;693988;28;1029;-63
2021/09/27 01:50:54;;;;;;;26.35;23.52;;;;;;;15.49;90.53;101372.22;693961;28;876;-64
2021/09/27 01:51:27;;;;;;;27.67;23.65;;;;;;;15.49;90.64;101372.22;693945;28;884;-64
2021/09/27 01:52:07;;;;;;;26.25;23.45;;;;;;;15.49;90.50;101374.03;693777;28;1130;-63
2021/09/27 01:52:44;;;;;;;27.40;23.83;;;;;;;15.49;90.63;101372.22;693905;28;930;-64
2021/09/27 01:53:13;;;;;;;27.13;23.98;;;;;;;15.49;90.82;101366.06;693771;28;1093;-63
2021/09/27 01:53:55;;;;;;;28.77;23.50;;;;;;;15.49;90.45;101377.53;693969;28;915;-65
2021/09/27 01:54:39;;;;;;;26.00;23.20;;;;;;;15.50;90.66;101375.72;693891;28;1030;-64
2021/09/27 01:55:13;;;;;;;27.55;23.77;;;;;;;15.48;90.28;101365.16;693922;28;879;-64
2021/09/27 01:55:41;;;;;;;26.50;22.80;;;;;;;15.48;90.53;101367.81;694002;28;896;-63
2021/09/27 01:56:18;;;;;;;25.77;22.92;;;;;;;15.50;90.25;101371.28;693841;28;1392;-63
2021/09/27 01:57:02;;;;;;;27.77;23.60;;;;;;;15.45;90.50;101365.38;693670;28;1965;-63
2021/09/27 01:57:41;;;;;;;26.85;23.95;;;;;;;15.40;90.89;101367.38;693932;28;908;-64
2021/09/27 01:58:15;;;;;;;27.77;24.23;;;;;;;15.38;90.96;101372.81;693980;28;1075;-65
2021/09/27 01:58:55;;;;;;;27.85;24.05;;;;;;;15.37;91.07;101373.72;693788;28;986;-63
2021/09/27 01:59:34;;;;;;;28.67;23.98;;;;;;;15.37;90.92;101372.84;693786;28;967;-64
2021/09/27 02:00:04;;;;;;;27.27;24.02;;;;;;;15.37;91.05;101375.53;694012;28;1018;-64
2021/09/27 02:00:31;;;;;;;28.35;24.35;;;;;;;15.32;90.84;101370.47;693750;28;1830;-63
2021/09/27 02:01:00;;;;;;;28.13;24.00;;;;;;;15.29;91.09;101369.78;693775;28;1332;-63
2021/09/27 02:01:32;;;;;;;27.15;23.65;;;;;;;15.28;90.87;101360.06;693838;28;1932;-63
2021/09/27 02:02:21;;;;;;;27.50;23.65;;;;;;;15.31;90.83;101365.22;693959;28;1090;-64
2021/09/27 02:02:49;;;;;;;27.88;23.80;;;;;;;15.31;91.10;101373.19;693569;28;943;-64
2021/09/27 02:03:22;;;;;;;26.98;24.08;;;;;;;15.30;91.06;101366.16;693905;28;975;-63
2021/09/27 02:03:51;;;;;;;28.20;23.55;;;;;;;15.30;91.31;101374.13;693935;28;825;-64
2021/09/27 02:04:21;;;;;;;27.45;23.70;;;;;;;15.25;91.24;101363.75;693909;28;1038;-63
2021/09/27 02:05:13;;;;;;;27.65;24.52;;;;;;;15.27;91.28;101371.63;693880;28;960;-64
2021/09/27 02:05:59;;;;;;;28.98;24.17;;;;;;;15.28;91.16;101360.06;693952;28;891;-63
2021/09/27 02:06:40;;;;;;;26.67;23.02;;;;;;;15.31;91.17;101373.19;693926;28;927;-63
2021/09/27 02:07:03;;;;;;;27.33;23.92;;;;;;;15.32;91.21;101372.25;693796;28;938;-64
2021/09/27 02:07:29;;;;;;;27.60;23.90;;;;;;;15.32;91.21;101373.13;694018;28;903;-63
2021/09/27 02:08:04;;;;;;;27.20;24.30;;;;;;;15.34;91.14;101367.72;693919;28;1046;-63
2021/09/27 02:08:29;;;;;;;26.73;23.83;;;;;;;15.34;91.03;101373.03;693925;28;1011;-64
2021/09/27 02:08:49;;;;;;;27.95;24.55;;;;;;;15.32;91.05;101373.13;693882;28;955;-65
2021/09/27 02:09:14;;;;;;;27.55;24.23;;;;;;;15.30;91.07;101371.47;693785;28;923;-64
2021/09/27 02:10:13;;;;;;;27.50;23.75;;;;;;;15.29;91.13;101375.94;693923;28;1927;-63
2021/09/27 02:10:46;;;;;;;27.52;24.23;;;;;;;15.29;91.10;101375.06;690778;28;1883;-63
2021/09/27 02:11:12;;;;;;;30.05;25.00;;;;;;;15.30;91.03;101374.13;693948;28;887;-64
2021/09/27 02:11:36;;;;;;;26.50;23.63;;;;;;;15.33;91.22;101376.63;693996;28;892;-64
2021/09/27 02:12:31;;;;;;;26.73;23.83;;;;;;;15.34;90.72;101375.69;693810;28;975;-63
2021/09/27 02:13:10;;;;;;;27.30;24.27;;;;;;;15.32;90.97;101375.78;693353;28;1011;-63
2021/09/27 02:13:37;;;;;;;27.10;23.77;;;;;;;15.33;90.92;101371.31;693841;28;988;-63
2021/09/27 02:14:22;;;;;;;27.98;24.23;;;;;;;15.34;90.96;101375.69;693952;28;938;-63
2021/09/27 02:14:42;;;;;;;30.52;24.65;;;;;;;15.34;90.67;101373.88;693792;28;881;-63